Shepherd, Texas
Current Conditions -  °F | °C
As of 3:15 PM on Tuesday 21 Oct 2014 (Local Time) from K6R3 Reporting Station
Clear Clear  
Wind Chill: 81°   Ceiling: Unl
Heat Index: 82°   Visibility: 7mi
Dew Point: 61°   Wind: 0mph
Humidity: 51%   Direction: NA
Pressure: 30.01"   Gusts: NA
Location:  30.5°N, 95°W
Report Text: K6R3 212015Z AUTO 00000KT 7SM CLR 27/16 A3001 RMK AO2 T02720163
Loading
Personal Weather Stations






























Interactive Weather Map
Tropical Storm Tracking
New forecast layout! Learn more

10-Day Weather Forecast

Advertisements
Track Severe Weather on mobile